Station Historical Data
Daily Summary for February 16, 2017 Units:  Metric    English   Both
Next Day »
Daily Weekly Monthly Yearly Custom
  High: Low: Average:
Temperature: 13.9 °C 6.9 °C 9.3 °C
Dew Point: 8.4 °C 0.3 °C 5.9 °C
Humidity: 94% 40% 82%
Wind Speed: 46.7km/h 0km/h 11.1km/h
Wind Gust: 66km/h - -
Wind- - South
Pressure: 1015.5 hPa 1009 hPa -
Precipitation: 15.75 mm    
Historical Graphs
 
 
Tabular Data for February 16, 2017
Time Temperature Dew Point Pressure Wind Wind Speed Wind Gust Humidity Rainfall Rate (Hourly) solar Conditions
00:02 12.5 °C 4.2 °C 1015.5 hPa SSE 11.3 km/h 11.3 km/h 57% 0 mm 0.00 W/m2
00:07 12.4 °C 3.6 °C 1015.1 hPa Calm   1.6 km/h 55% 0 mm 0.00 W/m2
00:12 12.3 °C 3 °C 1015.5 hPa SSE 14.5 km/h 17.7 km/h 53% 0 mm 0.00 W/m2
00:17 12.2 °C 2.9 °C 1015.5 hPa SSE 14.5 km/h 17.7 km/h 53% 0 mm 0.00 W/m2
00:22 12.2 °C 2.9 °C 1015.5 hPa SSE 9.7 km/h 20.9 km/h 53% 0 mm 0.00 W/m2
00:27 12.2 °C 3.2 °C 1015.1 hPa Calm   16.1 km/h 54% 0 mm 0.00 W/m2
00:32 12.2 °C 3.2 °C 1015.1 hPa SSE 9.7 km/h 17.7 km/h 54% 0 mm 0.00 W/m2
00:37 12.2 °C 2.9 °C 1014.4 hPa SSE 8 km/h 19.3 km/h 53% 0 mm 0.00 W/m2
00:42 12.2 °C 2.9 °C 1014.4 hPa SSE 12.9 km/h 22.5 km/h 53% 0 mm 0.00 W/m2
00:47 12.2 °C 2.9 °C 1014.4 hPa South 9.7 km/h 24.1 km/h 53% 0 mm 0.00 W/m2
00:52 12.2 °C 2.4 °C 1014.4 hPa SSE 12.9 km/h 32.2 km/h 51% 0 mm 0.00 W/m2
00:57 12.2 °C 2.4 °C 1014.4 hPa SSE 14.5 km/h 27.4 km/h 51% 0 mm 0.00 W/m2
01:02 12.3 °C 2.7 °C 1014.4 hPa SSE 24.1 km/h 27.4 km/h 52% 0 mm 0.00 W/m2
01:07 12.3 °C 2.7 °C 1014.1 hPa SE 11.3 km/h 22.5 km/h 52% 0 mm 0.00 W/m2
01:12 12.3 °C 2.2 °C 1013.4 hPa South 14.5 km/h 25.7 km/h 50% 0 mm 0.00 W/m2
01:17 12.3 °C 2.2 °C 1013.1 hPa South 22.5 km/h 33.8 km/h 50% 0 mm 0.00 W/m2
01:22 12.3 °C 1.9 °C 1013.1 hPa SSE 19.3 km/h 27.4 km/h 49% 0 mm 0.00 W/m2
01:27 12.4 °C 2.6 °C 1013.4 hPa SSE 14.5 km/h 33.8 km/h 51% 0 mm 0.00 W/m2
01:32 12.4 °C 1.7 °C 1013.1 hPa SSE 20.9 km/h 30.6 km/h 48% 0 mm 0.00 W/m2
01:37 12.5 °C 1.8 °C 1012.8 hPa SE 24.1 km/h 35.4 km/h 48% 0 mm 0.00 W/m2
01:43 12.6 °C 1.2 °C 1012.4 hPa South 46.7 km/h 46.7 km/h 46% 0 mm 0.00 W/m2
01:48 12.7 °C 1.7 °C 1012.4 hPa SSE 25.7 km/h 37 km/h 47% 0 mm 0.00 W/m2
01:53 12.8 °C 1.4 °C 1012.4 hPa SE 35.4 km/h 43.5 km/h 46% 0 mm 0.00 W/m2
01:57 12.9 °C 1.6 °C 1012.1 hPa South 24.1 km/h 30.6 km/h 46% 0 mm 0.00 W/m2
02:03 13 °C 1.3 °C 1012.1 hPa SE 11.3 km/h 33.8 km/h 45% 0 mm 0.00 W/m2
02:08 13.1 °C 1.1 °C 1011.7 hPa South 14.5 km/h 41.8 km/h 44% 0 mm 0.00 W/m2
02:13 13.2 °C 1.5 °C 1011.7 hPa South 30.6 km/h 33.8 km/h 45% 0 mm 0.00 W/m2
02:18 13.2 °C 0.9 °C 1011.4 hPa South 11.3 km/h 32.2 km/h 43% 0 mm 0.00 W/m2
02:23 13.3 °C 1 °C 1011.7 hPa South 16.1 km/h 32.2 km/h 43% 0 mm 0.00 W/m2
02:28 13.3 °C 1 °C 1011.7 hPa SSW 30.6 km/h 45.1 km/h 43% 0 mm 0.00 W/m2
02:33 13.4 °C 0.7 °C 1011.4 hPa SE 20.9 km/h 33.8 km/h 42% 0 mm 0.00 W/m2
02:38 13.4 °C 1.1 °C 1011.1 hPa SSE 29 km/h 35.4 km/h 43% 0 mm 0.00 W/m2
02:43 13.4 °C 0.8 °C 1011.1 hPa SE 19.3 km/h 32.2 km/h 42% 0 mm 0.00 W/m2
02:48 13.4 °C 0.4 °C 1011.1 hPa SSW 9.7 km/h 53.1 km/h 41% 0 mm 0.00 W/m2
02:53 13.5 °C 0.8 °C 1010.7 hPa SE 29 km/h 38.6 km/h 42% 0 mm 0.00 W/m2
02:58 13.5 °C 0.8 °C 1010.7 hPa ESE 8 km/h 41.8 km/h 42% 0 mm 0.00 W/m2
03:03 13.6 °C 0.6 °C 1010.4 hPa South 30.6 km/h 41.8 km/h 41% 0 mm 0.00 W/m2
03:08 13.6 °C 0.3 °C 1010.4 hPa SSW 19.3 km/h 40.2 km/h 40% 0 mm 0.00 W/m2
03:13 13.7 °C 0.3 °C 1010.4 hPa South 33.8 km/h 45.1 km/h 40% 0 mm 0.00 W/m2
03:18 13.8 °C 0.4 °C 1010.7 hPa SSE 24.1 km/h 45.1 km/h 40% 0 mm 0.00 W/m2
03:23 13.8 °C 0.4 °C 1010.4 hPa South 16.1 km/h 25.7 km/h 40% 0 mm 0.00 W/m2
03:28 13.9 °C 0.5 °C 1010.4 hPa SSE 16.1 km/h 32.2 km/h 40% 0 mm 0.00 W/m2
03:33 13.9 °C 0.5 °C 1010 hPa SSW 35.4 km/h 38.6 km/h 40% 0 mm 0.00 W/m2
03:38 13.8 °C 0.8 °C 1009.7 hPa SSE 14.5 km/h 37 km/h 41% 0 mm 0.00 W/m2
03:43 13.8 °C 0.4 °C 1010 hPa South 20.9 km/h 37 km/h 40% 0 mm 0.00 W/m2
03:48 13.8 °C 0.8 °C 1010 hPa SSE 14.5 km/h 22.5 km/h 41% 0 mm 0.00 W/m2
03:53 13.8 °C 0.8 °C 1010.4 hPa SSE 24.1 km/h 32.2 km/h 41% 0 mm 0.00 W/m2
03:58 13.8 °C 1.1 °C 1010.7 hPa South 24.1 km/h 38.6 km/h 42% 0 mm 0.00 W/m2
04:03 13.7 °C 1.4 °C 1010 hPa South 37 km/h 48.3 km/h 43% 0 mm 0.00 W/m2
04:08 13.7 °C 0.7 °C 1010.4 hPa SSE 20.9 km/h 48.3 km/h 41% 0 mm 0.00 W/m2
04:13 13.7 °C 0.7 °C 1010.4 hPa South 33.8 km/h 66 km/h 41% 0 mm 0.00 W/m2
04:18 13.8 °C 1.1 °C 1010.4 hPa South 22.5 km/h 38.6 km/h 42% 0 mm 0.00 W/m2
04:23 13.8 °C 1.2 °C 1010 hPa South 25.7 km/h 43.5 km/h 42% 0 mm 0.00 W/m2
04:28 13.8 °C 1.2 °C 1011.1 hPa SSW 33.8 km/h 43.5 km/h 42% 0 mm 0.00 W/m2
04:33 13.8 °C 0.8 °C 1011.4 hPa WSW 8 km/h 38.6 km/h 41% 0 mm 0.00 W/m2
04:38 13.8 °C 1.8 °C 1011.7 hPa South 16.1 km/h 40.2 km/h 44% 0 mm 0.00 W/m2
04:43 13.7 °C 1.4 °C 1012.1 hPa SSW 24.1 km/h 51.5 km/h 43% 0 mm 0.00 W/m2
04:48 13.5 °C 4.4 °C 1012.1 hPa SSW 9.7 km/h 66 km/h 54% 0 mm 0.00 W/m2
04:53 12.7 °C 5.6 °C 1011.7 hPa South 30.6 km/h 35.4 km/h 62% 0 mm 0.00 W/m2
04:58 12 °C 5.6 °C 1011.4 hPa South 9.7 km/h 30.6 km/h 65% 0 mm 0.00 W/m2
05:03 11.3 °C 5.4 °C 1011.1 hPa SSE 22.5 km/h 46.7 km/h 67% 0 mm 0.00 W/m2
05:08 10.9 °C 5 °C 1011.7 hPa SSE 25.7 km/h 38.6 km/h 67% 0 mm 0.00 W/m2
05:13 10.6 °C 5.8 °C 1011.7 hPa SSW 20.9 km/h 40.2 km/h 72% 0 mm 0.00 W/m2
05:18 10.3 °C 5.3 °C 1012.1 hPa South 9.7 km/h 49.9 km/h 71% 0 mm 0.00 W/m2
05:24 10.2 °C 5.6 °C 1012.1 hPa SSW 29 km/h 38.6 km/h 73% 0 mm 0.00 W/m2
05:29 9.9 °C 5.9 °C 1012.1 hPa South 17.7 km/h 35.4 km/h 76% 0 mm 0.00 W/m2
05:34 9.7 °C 6.3 °C 1012.1 hPa South 14.5 km/h 38.6 km/h 79% 3.3 mm 0.00 W/m2
05:39 9.4 °C 6.3 °C 1012.1 hPa SSW 24.1 km/h 32.2 km/h 81% 2.29 mm 0.00 W/m2
05:44 9.1 °C 6.2 °C 1012.1 hPa South 9.7 km/h 19.3 km/h 82% 1.27 mm 0.00 W/m2
05:49 8.9 °C 6.2 °C 1012.1 hPa SSE 19.3 km/h 46.7 km/h 83% 1.27 mm 0.00 W/m2
05:54 8.7 °C 6.3 °C 1011.7 hPa South 17.7 km/h 33.8 km/h 85% 2.03 mm 0.00 W/m2
05:59 8.6 °C 6.3 °C 1011.4 hPa South 20.9 km/h 25.7 km/h 86% 2.29 mm 0.00 W/m2
06:04 8.4 °C 6.3 °C 1011.4 hPa SE 8 km/h 32.2 km/h 87% 2.29 mm 0.00 W/m2
06:09 8.3 °C 6.4 °C 1011.7 hPa SE 17.7 km/h 40.2 km/h 88% 1.52 mm 0.00 W/m2
06:14 8.1 °C 6.2 °C 1011.7 hPa South 11.3 km/h 37 km/h 88% 1.52 mm 0.00 W/m2
06:19 8.1 °C 6.2 °C 1012.1 hPa SSE 25.7 km/h 38.6 km/h 88% 1.78 mm 0.00 W/m2
06:24 8 °C 6.3 °C 1012.4 hPa South 19.3 km/h 38.6 km/h 89% 3.05 mm 0.00 W/m2
06:29 7.9 °C 6.4 °C 1012.4 hPa SSE 17.7 km/h 37 km/h 90% 6.35 mm 0.00 W/m2
06:34 7.9 °C 6.3 °C 1012.4 hPa SSE 8 km/h 40.2 km/h 90% 7.62 mm 0.00 W/m2
06:39 7.8 °C 6.4 °C 1012.4 hPa SSE 11.3 km/h 38.6 km/h 91% 9.4 mm 0.00 W/m2
06:44 7.8 °C 6.4 °C 1012.8 hPa SSE 19.3 km/h 40.2 km/h 91% 8.64 mm 0.00 W/m2
06:49 7.7 °C 6.3 °C 1012.8 hPa SSW 17.7 km/h 48.3 km/h 91% 4.32 mm 0.00 W/m2
06:54 7.6 °C 6.3 °C 1012.8 hPa SSW 16.1 km/h 40.2 km/h 92% 4.32 mm 0.00 W/m2
06:59 7.5 °C 6.3 °C 1013.1 hPa South 25.7 km/h 43.5 km/h 92% 3.3 mm 0.00 W/m2
07:04 7.4 °C 6.2 °C 1012.8 hPa SSE 29 km/h 46.7 km/h 92% 3.05 mm 0.00 W/m2
07:09 7.4 °C 6.2 °C 1013.1 hPa South 30.6 km/h 43.5 km/h 92% 1.52 mm 0.00 W/m2
07:14 7.4 °C 6.3 °C 1013.1 hPa SE 17.7 km/h 27.4 km/h 93% 1.02 mm 0.00 W/m2
07:19 7.3 °C 6.3 °C 1013.4 hPa SE 29 km/h 33.8 km/h 93% 1.02 mm 0.00 W/m2
07:24 7.3 °C 6.3 °C 1013.4 hPa South 35.4 km/h 41.8 km/h 93% 1.02 mm 0.00 W/m2
07:29 7.3 °C 6.3 °C 1013.4 hPa South 16.1 km/h 35.4 km/h 93% 0 mm 0.00 W/m2
07:34 7.3 °C 6.2 °C 1013.4 hPa SSE 17.7 km/h 37 km/h 93% 0 mm 0.00 W/m2
07:39 7.2 °C 6.2 °C 1013.4 hPa SSW 27.4 km/h 59.5 km/h 93% 0 mm 0.00 W/m2
07:44 7.2 °C 6.1 °C 1013.4 hPa SE 17.7 km/h 41.8 km/h 93% 0 mm 5.00 W/m2
07:49 7.1 °C 6 °C 1013.4 hPa SE 19.3 km/h 37 km/h 93% 0 mm 5.00 W/m2
07:54 7 °C 5.9 °C 1013.4 hPa South 17.7 km/h 35.4 km/h 93% 1.78 mm 5.00 W/m2
07:59 7 °C 5.9 °C 1013.4 hPa South 17.7 km/h 41.8 km/h 93% 1.78 mm 0.00 W/m2
08:04 6.9 °C 5.9 °C 1013.4 hPa SSW 22.5 km/h 33.8 km/h 93% 1.52 mm 0.00 W/m2
08:09 6.9 °C 5.9 °C 1013.4 hPa SE 22.5 km/h 37 km/h 93% 1.52 mm 5.00 W/m2
08:14 6.9 °C 5.9 °C 1013.4 hPa South 22.5 km/h 40.2 km/h 93% 2.29 mm 7.00 W/m2
08:19 6.9 °C 5.9 °C 1013.4 hPa South 9.7 km/h 32.2 km/h 93% 1.78 mm 5.00 W/m2
08:25 6.9 °C 5.8 °C 1013.4 hPa South 19.3 km/h 32.2 km/h 93% 1.52 mm 0.00 W/m2
08:30 6.9 °C 5.8 °C 1013.4 hPa South 14.5 km/h 24.1 km/h 93% 2.29 mm 0.00 W/m2
08:35 6.9 °C 5.9 °C 1013.1 hPa SSE 16.1 km/h 29 km/h 93% 2.03 mm 14.00 W/m2
08:40 6.9 °C 5.9 °C 1013.4 hPa SSE 24.1 km/h 27.4 km/h 93% 1.27 mm 19.00 W/m2
08:45 6.9 °C 5.9 °C 1013.4 hPa SSW 14.5 km/h 33.8 km/h 93% 0 mm 21.00 W/m2
08:50 7.1 °C 6 °C 1013.1 hPa SSE 14.5 km/h 41.8 km/h 93% 0 mm 63.00 W/m2
08:55 7.1 °C 6.1 °C 1013.1 hPa South 24.1 km/h 27.4 km/h 93% 0 mm 14.00 W/m2
09:00 7.2 °C 6.1 °C 1013.1 hPa SSE 17.7 km/h 25.7 km/h 93% 1.27 mm 62.00 W/m2
09:05 7.2 °C 6.2 °C 1013.1 hPa SSE 12.9 km/h 40.2 km/h 93% 1.27 mm 30.00 W/m2
09:10 7.3 °C 6.3 °C 1013.4 hPa SSE 29 km/h 40.2 km/h 93% 1.27 mm 32.00 W/m2
09:15 7.3 °C 6.3 °C 1013.8 hPa South 12.9 km/h 38.6 km/h 93% 5.84 mm 35.00 W/m2
09:20 7.4 °C 6.4 °C 1013.8 hPa South 12.9 km/h 41.8 km/h 93% 2.29 mm 37.00 W/m2
09:25 7.5 °C 6.4 °C 1013.8 hPa SE 20.9 km/h 38.6 km/h 93% 1.27 mm 69.00 W/m2
09:30 7.6 °C 6.5 °C 1013.8 hPa SSE 19.3 km/h 37 km/h 93% 1.27 mm 39.00 W/m2
09:35 7.6 °C 6.6 °C 1014.1 hPa SW 11.3 km/h 30.6 km/h 93% 1.27 mm 37.00 W/m2
09:40 7.7 °C 6.6 °C 1014.4 hPa South 25.7 km/h 35.4 km/h 93% 1.27 mm 70.00 W/m2
09:45 7.7 °C 6.7 °C 1014.1 hPa SW 19.3 km/h 27.4 km/h 93% 1.27 mm 76.00 W/m2
09:50 7.8 °C 6.7 °C 1014.4 hPa Calm   33.8 km/h 93% 1.27 mm 12.00 W/m2
09:55 7.8 °C 6.8 °C 1014.4 hPa Calm   20.9 km/h 93% 23.37 mm 42.00 W/m2
10:00 7.8 °C 6.8 °C 1014.8 hPa SSW 11.3 km/h 27.4 km/h 93% 5.08 mm 81.00 W/m2
10:06 7.8 °C 6.7 °C 1014.8 hPa SSW 11.3 km/h 27.4 km/h 93% 2.54 mm 19.00 W/m2
10:11 7.8 °C 6.8 °C 1014.8 hPa SSW 22.5 km/h 29 km/h 93% 2.03 mm 69.00 W/m2
10:16 7.8 °C 6.8 °C 1014.8 hPa SW 8 km/h 29 km/h 93% 1.78 mm 83.00 W/m2
10:21 7.8 °C 6.8 °C 1014.8 hPa SW 9.7 km/h 30.6 km/h 93% 1.27 mm 81.00 W/m2
10:26 7.9 °C 6.8 °C 1014.8 hPa SSW 4.8 km/h 25.7 km/h 93% 0 mm 79.00 W/m2
10:31 7.9 °C 6.8 °C 1014.8 hPa SW 11.3 km/h 32.2 km/h 93% 0 mm 47.00 W/m2
10:36 7.9 °C 6.9 °C 1015.1 hPa South 20.9 km/h 32.2 km/h 93% 0 mm 86.00 W/m2
10:41 7.9 °C 6.9 °C 1015.1 hPa SSE 20.9 km/h 32.2 km/h 93% 0 mm 118.00 W/m2
10:46 8 °C 6.9 °C 1015.5 hPa SE 12.9 km/h 16.1 km/h 93% 0 mm 109.00 W/m2
10:51 8 °C 6.9 °C 1015.1 hPa South 9.7 km/h 11.3 km/h 93% 0 mm 178.00 W/m2
10:56 8.1 °C 7.1 °C 1015.5 hPa South 12.9 km/h 16.1 km/h 93% 0 mm 102.00 W/m2
11:01 8.1 °C 7.1 °C 1015.5 hPa SW 17.7 km/h 25.7 km/h 93% 0 mm 93.00 W/m2
11:06 8.2 °C 7.1 °C 1015.5 hPa SW 14.5 km/h 14.5 km/h 93% 0 mm 134.00 W/m2
11:11 8.2 °C 7.2 °C 1015.1 hPa SSE 16.1 km/h 20.9 km/h 93% 0 mm 243.00 W/m2
11:16 8.3 °C 7.2 °C 1015.5 hPa SSW 24.1 km/h 25.7 km/h 93% 0 mm 176.00 W/m2
11:21 8.3 °C 7.2 °C 1015.1 hPa South 14.5 km/h 24.1 km/h 93% 0 mm 113.00 W/m2
11:26 8.3 °C 7.3 °C 1015.5 hPa SSW 11.3 km/h 16.1 km/h 93% 0 mm 109.00 W/m2
11:31 8.3 °C 7.3 °C 1015.1 hPa Calm   12.9 km/h 93% 0 mm 313.00 W/m2
11:36 8.4 °C 7.4 °C 1015.1 hPa SSW 6.4 km/h 11.3 km/h 93% 0 mm 432.00 W/m2
11:41 8.6 °C 7.5 °C 1015.1 hPa South 14.5 km/h 14.5 km/h 93% 0 mm 155.00 W/m2
11:46 8.7 °C 7.6 °C 1015.5 hPa SSW 11.3 km/h 14.5 km/h 93% 0 mm 148.00 W/m2
11:51 8.7 °C 7.7 °C 1015.5 hPa South 11.3 km/h 11.3 km/h 93% 0 mm 179.00 W/m2
11:56 8.8 °C 7.7 °C 1015.5 hPa Calm     93% 0 mm 171.00 W/m2
12:01 8.9 °C 7.8 °C 1015.1 hPa SSW 17.7 km/h 17.7 km/h 93% 0 mm 107.00 W/m2
12:06 8.9 °C 7.8 °C 1015.1 hPa South 14.5 km/h 17.7 km/h 93% 0 mm 174.00 W/m2
12:11 8.9 °C 7.8 °C 1015.1 hPa SSW 11.3 km/h 11.3 km/h 93% 0 mm 100.00 W/m2
12:16 8.9 °C 7.8 °C 1014.8 hPa Calm   16.1 km/h 93% 0 mm 160.00 W/m2
12:21 8.9 °C 7.8 °C 1014.8 hPa South 3.2 km/h 12.9 km/h 93% 0 mm 91.00 W/m2
12:26 8.8 °C 7.8 °C 1014.8 hPa South 1.6 km/h 11.3 km/h 93% 0 mm 32.00 W/m2
12:31 8.7 °C 7.7 °C 1014.4 hPa Calm   6.4 km/h 93% 19.81 mm 53.00 W/m2
12:36 8.5 °C 7.6 °C 1014.8 hPa SSW 9.7 km/h 16.1 km/h 94% 23.11 mm 111.00 W/m2
12:42 8.1 °C 7.2 °C 1014.4 hPa South 6.4 km/h 12.9 km/h 94% 3.05 mm 186.00 W/m2
12:47 7.8 °C 6.8 °C 1014.4 hPa South 12.9 km/h 16.1 km/h 93% 1.52 mm 506.00 W/m2
12:52 8.1 °C 7 °C 1014.4 hPa SSE 11.3 km/h 14.5 km/h 93% 1.02 mm 403.00 W/m2
12:57 8.3 °C 7.2 °C 1014.4 hPa SSW 4.8 km/h 16.1 km/h 93% 0 mm 770.00 W/m2
13:02 8.6 °C 7.5 °C 1014.1 hPa South 12.9 km/h 24.1 km/h 93% 0 mm 255.00 W/m2
13:07 8.7 °C 7.6 °C 1014.1 hPa Calm   12.9 km/h 93% 0 mm 726.00 W/m2
13:12 8.8 °C 7.7 °C 1014.1 hPa SSW 20.9 km/h 24.1 km/h 93% 0 mm 144.00 W/m2
13:17 8.9 °C 7.9 °C 1014.1 hPa SW 17.7 km/h 19.3 km/h 93% 0 mm 81.00 W/m2
13:22 8.9 °C 7.8 °C 1014.4 hPa SSE 25.7 km/h 25.7 km/h 93% 0 mm 60.00 W/m2
13:27 8.8 °C 7.7 °C 1014.1 hPa Calm   12.9 km/h 93% 5.33 mm 76.00 W/m2
13:32 8.5 °C 7.4 °C 1014.1 hPa SSE 12.9 km/h 19.3 km/h 93% 4.57 mm 155.00 W/m2
13:37 8.4 °C 7.6 °C 1014.1 hPa South 8 km/h 16.1 km/h 94% 1.78 mm 120.00 W/m2
13:42 8.5 °C 7.4 °C 1014.1 hPa South 9.7 km/h 16.1 km/h 93% 1.02 mm 95.00 W/m2
13:47 8.5 °C 7.4 °C 1014.1 hPa Calm   6.4 km/h 93% 0 mm 118.00 W/m2
13:52 8.6 °C 7.6 °C 1014.1 hPa South 14.5 km/h 14.5 km/h 93% 0 mm 179.00 W/m2
13:57 8.7 °C 7.7 °C 1014.1 hPa SSE 11.3 km/h 17.7 km/h 93% 0 mm 120.00 W/m2
14:02 8.8 °C 7.7 °C 1014.1 hPa South 14.5 km/h 16.1 km/h 93% 0 mm 120.00 W/m2
14:07 8.8 °C 7.7 °C 1014.1 hPa South 16.1 km/h 19.3 km/h 93% 0 mm 190.00 W/m2
14:12 8.8 °C 7.8 °C 1013.8 hPa South 27.4 km/h 27.4 km/h 93% 0 mm 113.00 W/m2
14:17 8.8 °C 7.8 °C 1013.8 hPa SE 11.3 km/h 19.3 km/h 93% 0 mm 148.00 W/m2
14:22 8.8 °C 7.8 °C 1013.8 hPa South 9.7 km/h 14.5 km/h 93% 0 mm 132.00 W/m2
14:27 8.8 °C 7.7 °C 1013.8 hPa South 9.7 km/h 19.3 km/h 93% 0 mm 239.00 W/m2
14:32 8.8 °C 7.8 °C 1013.8 hPa SSE 14.5 km/h 14.5 km/h 93% 0 mm 712.00 W/m2
14:37 8.9 °C 7.9 °C 1013.8 hPa SSE 8 km/h 17.7 km/h 93% 0 mm 527.00 W/m2
14:42 9.1 °C 8 °C 1014.1 hPa South 20.9 km/h 24.1 km/h 93% 0 mm 127.00 W/m2
14:47 9 °C 8.1 °C 1013.8 hPa SSE 12.9 km/h 19.3 km/h 94% 0 mm 246.00 W/m2
14:52 9 °C 8.1 °C 1014.1 hPa SSW 17.7 km/h 19.3 km/h 94% 0 mm 253.00 W/m2
14:57 9.1 °C 8.2 °C 1014.1 hPa SSW 12.9 km/h 20.9 km/h 94% 0 mm 220.00 W/m2
15:02 9.1 °C 8.2 °C 1014.1 hPa South 17.7 km/h 25.7 km/h 94% 0 mm 137.00 W/m2
15:07 9.2 °C 8.3 °C 1013.8 hPa South 12.9 km/h 30.6 km/h 94% 0 mm 134.00 W/m2
15:12 9.2 °C 8.1 °C 1014.1 hPa Calm   20.9 km/h 93% 0 mm 127.00 W/m2
15:17 9.2 °C 8.2 °C 1014.1 hPa South 12.9 km/h 17.7 km/h 93% 0 mm 204.00 W/m2
15:22 9.3 °C 8.2 °C 1014.1 hPa SSE 8 km/h 11.3 km/h 93% 0 mm 207.00 W/m2
15:27 9.3 °C 8.3 °C 1013.8 hPa SSE 8 km/h 14.5 km/h 93% 0 mm 575.00 W/m2
15:32 9.5 °C 8.4 °C 1014.1 hPa Calm   27.4 km/h 93% 0 mm 135.00 W/m2
15:37 9.3 °C 7.9 °C 1014.1 hPa SSW 14.5 km/h 20.9 km/h 91% 0 mm 102.00 W/m2
15:42 9.3 °C 7.8 °C 1014.1 hPa South 20.9 km/h 24.1 km/h 90% 0 mm 76.00 W/m2
15:47 9.3 °C 7.6 °C 1014.1 hPa South 1.6 km/h 11.3 km/h 89% 0 mm 84.00 W/m2
15:52 9.4 °C 7.8 °C 1014.1 hPa South 9.7 km/h 17.7 km/h 90% 0 mm 70.00 W/m2
15:57 9.3 °C 7.8 °C 1013.8 hPa South 8 km/h 19.3 km/h 90% 0 mm 60.00 W/m2
16:02 9.3 °C 7.9 °C 1013.8 hPa Calm   12.9 km/h 91% 0 mm 60.00 W/m2
16:07 9.3 °C 7.9 °C 1013.8 hPa Calm   1.6 km/h 91% 0 mm 88.00 W/m2
16:12 9.2 °C 7.8 °C 1013.8 hPa Calm   1.6 km/h 91% 0 mm 93.00 W/m2
16:17 9.2 °C 7.9 °C 1013.8 hPa Calm   12.9 km/h 92% 0 mm 54.00 W/m2
16:22 9.1 °C 7.9 °C 1013.8 hPa Calm     92% 0 mm 35.00 W/m2
16:27 9.1 °C 8.1 °C 1013.8 hPa South 1.6 km/h 1.6 km/h 93% 0 mm 28.00 W/m2
16:28 9.1 °C 8.1 °C 1013.8 hPa SSE 16.1 km/h 16.1 km/h 93% 0 mm 28.00 W/m2
16:33 9.1 °C 8 °C 1013.8 hPa Calm   16.1 km/h 93% 0 mm 25.00 W/m2
16:38 9 °C 7.9 °C 1013.8 hPa SSW 14.5 km/h 19.3 km/h 93% 0 mm 23.00 W/m2
16:43 8.9 °C 7.7 °C 1013.8 hPa SSW 9.7 km/h 19.3 km/h 92% 0 mm 33.00 W/m2
16:48 9 °C 7.8 °C 1013.8 hPa SSW 11.3 km/h 14.5 km/h 92% 0 mm 46.00 W/m2
16:53 8.9 °C 7.7 °C 1013.8 hPa SW 3.2 km/h 9.7 km/h 92% 0 mm 39.00 W/m2
16:58 8.9 °C 7.6 °C 1013.8 hPa SW 11.3 km/h 11.3 km/h 91% 0 mm 25.00 W/m2
17:03 8.9 °C 7.6 °C 1013.4 hPa Calm   1.6 km/h 91% 0 mm 25.00 W/m2
17:08 8.9 °C 7.6 °C 1013.4 hPa SSW 3.2 km/h 11.3 km/h 91% 0 mm 18.00 W/m2
17:13 8.9 °C 7.6 °C 1013.4 hPa Calm   12.9 km/h 91% 0 mm 9.00 W/m2
17:18 8.8 °C 7.4 °C 1013.4 hPa South 11.3 km/h 14.5 km/h 91% 0 mm 9.00 W/m2
17:23 8.8 °C 7.4 °C 1013.4 hPa Calm     91% 0 mm 11.00 W/m2
17:28 8.8 °C 7.4 °C 1013.4 hPa Calm     91% 0 mm 7.00 W/m2
17:33 8.8 °C 7.4 °C 1013.1 hPa Calm     91% 0 mm 7.00 W/m2
17:38 8.7 °C 7.5 °C 1012.8 hPa Calm     92% 0 mm 5.00 W/m2
17:43 8.7 °C 7.4 °C 1012.8 hPa Calm     92% 0 mm 0.00 W/m2
17:48 8.6 °C 7.4 °C 1012.8 hPa Calm     92% 0 mm 0.00 W/m2
17:53 8.6 °C 7.3 °C 1013.1 hPa Calm     92% 0 mm 0.00 W/m2
17:58 8.5 °C 7.4 °C 1012.8 hPa Calm     93% 0 mm 0.00 W/m2
18:03 8.4 °C 7.3 °C 1012.8 hPa Calm     93% 0 mm 0.00 W/m2
18:08 8.3 °C 7.3 °C 1012.8 hPa Calm     93% 0 mm 0.00 W/m2
18:13 8.3 °C 7.2 °C 1012.8 hPa Calm     93% 0 mm 0.00 W/m2
18:18 8.2 °C 7.2 °C 1012.8 hPa Calm     93% 0 mm 0.00 W/m2
18:23 8.2 °C 7.1 °C 1012.4 hPa Calm     93% 0 mm 0.00 W/m2
18:28 8.1 °C 7.1 °C 1012.4 hPa Calm     93% 0 mm 0.00 W/m2
18:33 8.1 °C 7.1 °C 1012.4 hPa Calm     93% 0 mm 0.00 W/m2
18:38 8.1 °C 7 °C 1012.8 hPa Calm     93% 0 mm 0.00 W/m2
18:43 8.1 °C 7 °C 1012.4 hPa Calm     93% 0 mm 0.00 W/m2
18:48 8 °C 6.9 °C 1012.8 hPa Calm     93% 0 mm 0.00 W/m2
18:53 8 °C 6.9 °C 1012.8 hPa Calm     93% 0 mm 0.00 W/m2
18:58 8 °C 6.9 °C 1012.8 hPa Calm     93% 0 mm 0.00 W/m2
19:03 8 °C 6.9 °C 1012.8 hPa Calm     93% 0 mm 0.00 W/m2
19:08 8 °C 6.9 °C 1012.8 hPa Calm     93% 0 mm 0.00 W/m2
19:13 8 °C 6.9 °C 1012.8 hPa Calm     93% 0 mm 0.00 W/m2
19:19 8 °C 6.9 °C 1012.8 hPa Calm     93% 0 mm 0.00 W/m2
19:24 8 °C 6.9 °C 1012.4 hPa Calm     93% 0 mm 0.00 W/m2
19:29 8.1 °C 7 °C 1012.4 hPa Calm     93% 0 mm 0.00 W/m2
19:34 8.1 °C 7 °C 1012.4 hPa Calm     93% 0 mm 0.00 W/m2
19:39 8.1 °C 7 °C 1012.4 hPa Calm     93% 0 mm 0.00 W/m2
19:44 8.1 °C 7 °C 1012.4 hPa Calm     93% 0 mm 0.00 W/m2
19:49 8.1 °C 7 °C 1012.4 hPa Calm     93% 0 mm 0.00 W/m2
19:54 8.1 °C 7 °C 1012.1 hPa Calm     93% 0 mm 0.00 W/m2
19:59 8 °C 6.9 °C 1012.1 hPa Calm     93% 0 mm 0.00 W/m2
20:04 8 °C 6.9 °C 1012.1 hPa Calm     93% 0 mm 0.00 W/m2
20:09 8 °C 6.9 °C 1012.1 hPa Calm     93% 0 mm 0.00 W/m2
20:14 8 °C 6.9 °C 1012.1 hPa Calm     93% 0 mm 0.00 W/m2
20:19 8 °C 6.9 °C 1011.7 hPa Calm     93% 0 mm 0.00 W/m2
20:24 8 °C 6.9 °C 1011.7 hPa Calm     93% 0 mm 0.00 W/m2
20:29 8 °C 6.9 °C 1011.7 hPa Calm     93% 0 mm 0.00 W/m2
20:34 8 °C 6.9 °C 1011.7 hPa Calm     93% 0 mm 0.00 W/m2
20:39 8.1 °C 7 °C 1011.7 hPa Calm   12.9 km/h 93% 0 mm 0.00 W/m2
20:44 8.1 °C 7 °C 1011.7 hPa Calm   1.6 km/h 93% 0 mm 0.00 W/m2
20:49 8.1 °C 7 °C 1011.7 hPa Calm     93% 0 mm 0.00 W/m2
20:54 8.1 °C 7 °C 1011.7 hPa Calm     93% 0 mm 0.00 W/m2
20:59 8.1 °C 7 °C 1011.7 hPa Calm     93% 0 mm 0.00 W/m2
21:04 8 °C 6.9 °C 1011.7 hPa Calm     93% 0 mm 0.00 W/m2
21:09 8 °C 6.9 °C 1011.4 hPa Calm     93% 0 mm 0.00 W/m2
21:14 8 °C 6.9 °C 1011.4 hPa Calm     93% 0 mm 0.00 W/m2
21:19 8 °C 6.9 °C 1011.1 hPa Calm     93% 0 mm 0.00 W/m2
21:24 8 °C 6.9 °C 1011.1 hPa Calm     93% 0 mm 0.00 W/m2
21:29 8 °C 6.9 °C 1011.1 hPa Calm     93% 0 mm 0.00 W/m2
21:34 7.9 °C 6.9 °C 1011.1 hPa Calm     93% 0 mm 0.00 W/m2
21:39 7.9 °C 6.8 °C 1011.1 hPa Calm     93% 0 mm 0.00 W/m2
21:44 7.8 °C 6.8 °C 1011.1 hPa Calm     93% 0 mm 0.00 W/m2
21:49 7.8 °C 6.7 °C 1010.7 hPa Calm     93% 0 mm 0.00 W/m2
21:54 7.7 °C 6.7 °C 1010.7 hPa Calm     93% 0 mm 0.00 W/m2
22:00 7.7 °C 6.7 °C 1010.4 hPa Calm     93% 0 mm 0.00 W/m2
22:05 7.7 °C 6.6 °C 1010.4 hPa Calm     93% 0 mm 0.00 W/m2
22:10 7.7 °C 6.7 °C 1010.4 hPa Calm     93% 0 mm 0.00 W/m2
22:15 7.7 °C 6.6 °C 1010.4 hPa Calm     93% 0 mm 0.00 W/m2
22:20 7.7 °C 6.7 °C 1010.4 hPa Calm     93% 0 mm 0.00 W/m2
22:25 7.7 °C 6.7 °C 1010.4 hPa Calm   6.4 km/h 93% 0 mm 0.00 W/m2
22:30 7.7 °C 6.7 °C 1010.4 hPa Calm     93% 0 mm 0.00 W/m2
22:35 7.7 °C 6.7 °C 1010.4 hPa Calm     93% 0 mm 0.00 W/m2
22:40 7.7 °C 6.7 °C 1010.4 hPa Calm     93% 0 mm 0.00 W/m2
22:45 7.7 °C 6.7 °C 1010.4 hPa Calm     93% 0 mm 0.00 W/m2
22:50 7.7 °C 6.7 °C 1010 hPa Calm     93% 0 mm 0.00 W/m2
22:55 7.7 °C 6.7 °C 1010 hPa Calm     93% 0 mm 0.00 W/m2
23:00 7.7 °C 6.7 °C 1010 hPa Calm     93% 0 mm 0.00 W/m2
23:05 7.7 °C 6.6 °C 1010 hPa Calm     93% 0 mm 0.00 W/m2
23:10 7.7 °C 6.6 °C 1010 hPa Calm     93% 0 mm 0.00 W/m2
23:15 7.7 °C 6.6 °C 1010 hPa Calm     93% 0 mm 0.00 W/m2
23:20 7.6 °C 6.6 °C 1009.7 hPa SE 6.4 km/h 8 km/h 93% 0 mm 0.00 W/m2
23:25 7.6 °C 6.6 °C 1009.4 hPa SE 3.2 km/h 9.7 km/h 93% 0 mm 0.00 W/m2
23:30 7.6 °C 6.5 °C 1009.4 hPa Calm   1.6 km/h 93% 0 mm 0.00 W/m2
23:35 7.6 °C 6.5 °C 1009 hPa Calm     93% 0 mm 0.00 W/m2
23:40 7.6 °C 6.5 °C 1009 hPa Calm     93% 0 mm 0.00 W/m2
23:45 7.6 °C 6.5 °C 1009 hPa Calm     93% 0 mm 0.00 W/m2
23:50 7.6 °C 6.6 °C 1009 hPa Calm     93% 0 mm 0.00 W/m2
23:55 7.6 °C 6.6 °C 1009 hPa Calm     93% 0 mm 0.00 W/m2
Foresthill Weather
 WU-history PHP script courtesy of   Juneau County Weather.
powered by Cumulus v1.9.3 (1059)
Ambient Weather VWS v14.00
Top Contact Website Map Copyright © 2007 - 2018 Foresthillweather.com Never base important decisions on this or any weather information obtained from the Internet